Capitol Logistics 2062

Operating for MET



KBOS
Logan International Airport
Boston, Massachusetts
KMCI
Kansas City International Airport
Kansas City, Missouri

Route Details

Aircraft Information
Primary: Boeing 767-300BDSF
Backup: Boeing 757-200SF
Route Data
Distance: 1090nm
Duration: 3h 45m
Recm'd Route: HYLND5 HYLND CAM Q822 GONZZ Q29 DORET DJB J60 JOT J26 IRK BQS6
Origin Wx: KBOS 180154Z 00000KT 10SM OVC060 08/02 A2979 RMK AO2 SLP087 T00830017
Dest. Wx: KMCI 180153Z 29005KT 10SM OVC070 10/07 A3005 RMK AO2 SLP178 T01000067
Notes: OPF METRO AIR VIRTUAL